createdAt,value
2023-01-30T00:01:15.605Z,18.63
2023-01-30T00:03:43.200Z,18.45
2023-01-30T00:06:11.277Z,18.95
2023-01-30T00:08:38.957Z,18.60
2023-01-30T00:11:14.569Z,17.13
2023-01-30T00:13:42.963Z,19.10
2023-01-30T00:16:13.450Z,18.67
2023-01-30T00:18:44.602Z,18.60
2023-01-30T00:23:42.526Z,16.42
2023-01-30T00:26:10.783Z,17.85
2023-01-30T00:28:40.501Z,18.25
2023-01-30T00:31:08.559Z,17.50
2023-01-30T00:33:39.978Z,19.00
2023-01-30T00:36:07.974Z,18.70
2023-01-30T00:38:37.425Z,17.83
2023-01-30T00:41:08.255Z,17.65
2023-01-30T00:43:54.725Z,17.25
2023-01-30T00:46:51.608Z,18.05
2023-01-30T00:49:22.175Z,19.40
2023-01-30T00:51:49.892Z,18.20
2023-01-30T00:54:17.797Z,20.38
2023-01-30T00:56:48.323Z,18.38
2023-01-30T00:59:16.121Z,13.55
2023-01-30T01:01:46.523Z,18.52
2023-01-30T01:04:17.704Z,16.60
2023-01-30T01:06:47.581Z,18.48
2023-01-30T01:09:15.306Z,17.15
2023-01-30T01:11:43.260Z,18.30
2023-01-30T01:14:11.024Z,17.52
2023-01-30T01:16:39.161Z,19.33
2023-01-30T01:19:06.910Z,17.65
2023-01-30T01:21:34.841Z,17.63
2023-01-30T01:24:02.560Z,17.42
2023-01-30T01:26:30.501Z,17.92
2023-01-30T01:28:58.351Z,18.05
2023-01-30T01:31:26.394Z,17.65
2023-01-30T01:33:56.041Z,18.48
2023-01-30T01:36:51.534Z,17.42
2023-01-30T01:39:11.756Z,17.35
2023-01-30T01:41:39.442Z,18.77
2023-01-30T01:44:08.263Z,18.48
2023-01-30T01:46:38.191Z,17.20
2023-01-30T01:49:07.905Z,16.55
2023-01-30T01:51:37.595Z,15.85
2023-01-30T01:54:11.782Z,17.10
2023-01-30T01:56:44.182Z,18.40
2023-01-30T01:59:15.123Z,18.63
2023-01-30T02:01:42.843Z,18.52
2023-01-30T02:04:11.091Z,16.63
2023-01-30T02:06:40.577Z,17.85
2023-01-30T02:09:09.509Z,17.83
2023-01-30T02:11:40.477Z,18.45
2023-01-30T02:14:08.722Z,18.20
2023-01-30T02:16:37.583Z,16.92
2023-01-30T02:19:12.995Z,17.08
2023-01-30T02:22:03.649Z,17.63
2023-01-30T02:24:34.354Z,18.13
2023-01-30T02:27:21.167Z,16.25
2023-01-30T02:30:08.687Z,16.33
2023-01-30T02:32:54.054Z,17.02
2023-01-30T02:35:37.596Z,16.17
2023-01-30T02:38:11.709Z,18.35
2023-01-30T02:40:51.261Z,17.02
2023-01-30T02:43:19.612Z,17.83
2023-01-30T02:46:03.410Z,15.55
2023-01-30T02:48:34.339Z,18.05
2023-01-30T02:51:04.541Z,16.25
2023-01-30T02:53:36.416Z,16.80
2023-01-30T02:56:05.232Z,17.60
2023-01-30T02:58:36.958Z,16.27
2023-01-30T03:01:07.883Z,17.08
2023-01-30T03:03:53.149Z,16.10
2023-01-30T03:07:01.524Z,15.93
2023-01-30T03:09:52.042Z,16.70
2023-01-30T03:12:28.792Z,14.50
2023-01-30T03:15:00.819Z,16.88
2023-01-30T03:17:29.383Z,13.13
2023-01-30T03:19:57.284Z,15.95
2023-01-30T03:22:24.987Z,16.75
2023-01-30T03:24:53.906Z,17.33
2023-01-30T03:27:22.557Z,15.38
2023-01-30T03:29:50.187Z,15.10
2023-01-30T03:32:17.939Z,14.60
2023-01-30T03:34:45.625Z,14.88
2023-01-30T03:37:13.365Z,14.82
2023-01-30T03:39:41.373Z,14.05
2023-01-30T03:42:09.379Z,15.07
2023-01-30T03:44:37.587Z,15.38
2023-01-30T03:47:05.232Z,15.55
2023-01-30T03:49:32.800Z,14.32
2023-01-30T03:52:00.532Z,14.13
2023-01-30T03:54:28.249Z,16.00
2023-01-30T03:56:55.871Z,15.38
2023-01-30T03:59:24.257Z,14.57
2023-01-30T04:01:59.745Z,16.30
2023-01-30T04:04:27.278Z,15.35
2023-01-30T04:06:56.012Z,14.70
2023-01-30T04:09:24.283Z,14.23
2023-01-30T04:11:53.154Z,13.95
2023-01-30T04:14:20.793Z,13.68
2023-01-30T04:17:07.312Z,14.57
2023-01-30T04:19:57.956Z,14.23
2023-01-30T04:22:26.045Z,14.38
2023-01-30T04:24:53.904Z,14.43
2023-01-30T04:27:21.546Z,14.40
2023-01-30T04:30:07.581Z,14.25
2023-01-30T04:32:35.338Z,14.57
2023-01-30T04:35:03.100Z,14.48
2023-01-30T04:37:30.810Z,13.85
2023-01-30T04:39:58.542Z,14.13
2023-01-30T04:42:27.974Z,14.20
2023-01-30T04:45:18.651Z,14.75
2023-01-30T04:47:49.172Z,16.45
2023-01-30T04:50:17.682Z,15.10
2023-01-30T04:52:45.236Z,14.95
2023-01-30T04:55:13.372Z,14.93
2023-01-30T04:57:41.316Z,14.70
2023-01-30T05:00:09.128Z,15.30
2023-01-30T05:02:39.844Z,15.73
2023-01-30T05:05:07.485Z,14.73
2023-01-30T05:07:35.040Z,14.18
2023-01-30T05:10:03.030Z,14.25
2023-01-30T05:12:30.887Z,15.88
2023-01-30T05:14:58.574Z,15.40
2023-01-30T05:17:26.302Z,14.45
2023-01-30T05:19:54.072Z,14.90
2023-01-30T05:22:21.651Z,15.60
2023-01-30T05:24:49.269Z,16.15
2023-01-30T05:27:16.981Z,17.10
2023-01-30T05:29:44.776Z,21.52
2023-01-30T05:32:16.123Z,17.65
2023-01-30T05:34:43.909Z,16.17
2023-01-30T05:37:11.923Z,15.75
2023-01-30T05:39:39.602Z,15.68
2023-01-30T05:42:07.372Z,15.25
2023-01-30T05:44:35.074Z,15.10
2023-01-30T05:47:02.819Z,15.13
2023-01-30T05:49:30.410Z,14.02
2023-01-30T05:51:58.161Z,14.35
2023-01-30T05:54:25.830Z,15.13
2023-01-30T05:56:53.472Z,14.88
2023-01-30T05:59:21.184Z,14.77
2023-01-30T06:01:49.013Z,14.65
2023-01-30T06:04:16.662Z,15.43
2023-01-30T06:06:44.344Z,14.75
2023-01-30T06:09:12.169Z,15.27
2023-01-30T06:11:39.740Z,15.10
2023-01-30T06:14:07.455Z,14.65
2023-01-30T06:16:35.336Z,14.98
2023-01-30T06:19:02.945Z,13.55
2023-01-30T06:21:30.634Z,15.55
2023-01-30T06:23:58.619Z,14.90
2023-01-30T06:26:26.343Z,15.32
2023-01-30T06:28:53.997Z,15.77
2023-01-30T06:31:21.913Z,15.18
2023-01-30T06:33:49.746Z,16.05
2023-01-30T06:36:17.407Z,15.50
2023-01-30T06:38:45.093Z,13.63
2023-01-30T06:41:12.713Z,15.45
2023-01-30T06:43:41.915Z,15.18
2023-01-30T06:46:09.951Z,14.50
2023-01-30T06:48:37.638Z,15.90
2023-01-30T06:51:05.352Z,16.73
2023-01-30T06:53:32.988Z,15.52
2023-01-30T06:56:01.980Z,15.00
2023-01-30T06:58:29.614Z,19.05
2023-01-30T07:00:58.389Z,16.33
2023-01-30T07:03:26.079Z,16.42
2023-01-30T07:05:53.811Z,14.35
2023-01-30T07:08:23.374Z,15.80
2023-01-30T07:10:52.094Z,12.13
2023-01-30T07:13:19.657Z,13.05
2023-01-30T07:15:47.399Z,14.82
2023-01-30T07:18:15.112Z,14.55
2023-01-30T07:20:42.937Z,15.32
2023-01-30T07:23:10.709Z,14.35
2023-01-30T07:25:38.516Z,14.07
2023-01-30T07:28:06.497Z,13.55
2023-01-30T07:30:36.212Z,14.93
2023-01-30T07:33:05.501Z,13.93
2023-01-30T07:35:34.358Z,14.85
2023-01-30T07:38:02.075Z,14.65
2023-01-30T07:40:29.797Z,13.68
2023-01-30T07:43:02.103Z,15.27
2023-01-30T07:45:32.296Z,15.02
2023-01-30T07:48:00.016Z,13.27
2023-01-30T07:50:27.897Z,13.60
2023-01-30T07:52:55.621Z,15.40
2023-01-30T07:55:23.260Z,14.70
2023-01-30T07:57:50.941Z,13.35
2023-01-30T08:00:19.277Z,13.50
2023-01-30T08:02:47.102Z,13.10
2023-01-30T08:05:14.801Z,13.73
2023-01-30T08:07:42.518Z,13.98
2023-01-30T08:10:12.111Z,14.75
2023-01-30T08:12:40.666Z,13.60
2023-01-30T08:15:09.054Z,13.95
2023-01-30T08:17:36.695Z,13.57
2023-01-30T08:20:04.789Z,14.38
2023-01-30T08:22:32.372Z,14.32
2023-01-30T08:25:00.534Z,14.30
2023-01-30T08:27:28.261Z,14.10
2023-01-30T08:29:57.137Z,14.10
2023-01-30T08:32:24.886Z,13.55
2023-01-30T08:34:52.505Z,12.13
2023-01-30T08:37:20.159Z,13.98
2023-01-30T08:39:47.729Z,12.23
2023-01-30T08:42:15.412Z,12.50
2023-01-30T08:44:43.109Z,10.95
2023-01-30T08:47:10.789Z,13.70
2023-01-30T08:49:38.406Z,11.57
2023-01-30T08:52:06.021Z,10.70
2023-01-30T08:54:33.596Z,12.00
2023-01-30T08:57:01.290Z,11.75
2023-01-30T08:59:29.507Z,12.07
2023-01-30T09:01:57.056Z,9.98
2023-01-30T09:04:26.400Z,8.98
2023-01-30T09:06:54.031Z,10.13
2023-01-30T09:09:21.615Z,10.10
2023-01-30T09:11:49.256Z,9.57
2023-01-30T09:14:19.818Z,10.07
2023-01-30T09:16:48.238Z,9.80
2023-01-30T09:19:15.927Z,10.25
2023-01-30T09:21:43.644Z,9.05
2023-01-30T09:24:11.252Z,9.43
2023-01-30T09:26:40.418Z,10.05
2023-01-30T09:29:08.318Z,9.52
2023-01-30T09:31:36.178Z,9.18
2023-01-30T09:34:04.127Z,9.57
2023-01-30T09:36:31.699Z,10.10
2023-01-30T09:38:59.349Z,9.32
2023-01-30T09:41:30.183Z,9.30
2023-01-30T09:44:36.434Z,8.95
2023-01-30T09:47:09.798Z,10.25
2023-01-30T09:49:46.138Z,9.88
2023-01-30T09:52:16.791Z,10.60
2023-01-30T09:54:46.058Z,9.40
2023-01-30T09:57:22.541Z,11.20
2023-01-30T10:00:08.708Z,9.23
2023-01-30T10:02:52.731Z,9.90
2023-01-30T10:05:20.508Z,10.43
2023-01-30T10:07:48.240Z,8.48
2023-01-30T10:10:34.859Z,9.77
2023-01-30T10:13:11.801Z,8.65
2023-01-30T10:15:39.515Z,7.95
2023-01-30T10:18:25.249Z,9.40
2023-01-30T10:21:04.926Z,7.90
2023-01-30T10:23:44.989Z,8.50
2023-01-30T10:26:15.612Z,7.93
2023-01-30T10:28:49.768Z,8.02
2023-01-30T10:31:20.956Z,7.82
2023-01-30T10:33:55.449Z,6.55
2023-01-30T10:36:30.415Z,7.80
2023-01-30T10:39:00.018Z,7.68
2023-01-30T10:41:29.529Z,7.05
2023-01-30T10:44:06.509Z,6.63
2023-01-30T10:46:42.670Z,5.90
2023-01-30T10:49:16.690Z,6.18
2023-01-30T10:51:47.506Z,6.88
2023-01-30T10:54:19.829Z,6.85
2023-01-30T10:56:55.540Z,7.78
2023-01-30T10:59:29.329Z,6.22
2023-01-30T11:01:59.806Z,8.13
2023-01-30T11:04:50.791Z,6.90
2023-01-30T11:07:18.391Z,6.85
2023-01-30T11:09:47.584Z,6.70
2023-01-30T11:12:15.530Z,7.57
2023-01-30T11:14:59.439Z,7.43
2023-01-30T11:17:34.122Z,7.32
2023-01-30T11:20:13.409Z,6.40
2023-01-30T11:22:46.651Z,6.55
2023-01-30T11:25:16.740Z,6.90
2023-01-30T11:27:45.522Z,7.57
2023-01-30T11:30:15.461Z,6.43
2023-01-30T11:32:44.567Z,5.45
2023-01-30T11:35:14.933Z,7.50
2023-01-30T11:37:43.597Z,7.70
2023-01-30T11:40:26.335Z,6.50
2023-01-30T11:43:05.017Z,7.93
2023-01-30T11:45:40.142Z,8.60
2023-01-30T11:48:34.113Z,7.82
2023-01-30T11:51:08.238Z,6.60
2023-01-30T11:53:41.017Z,8.05
2023-01-30T11:56:20.872Z,7.00
2023-01-30T11:58:58.105Z,5.57
2023-01-30T12:01:29.822Z,6.05
2023-01-30T12:03:58.269Z,5.35
2023-01-30T12:06:34.519Z,5.68
2023-01-30T12:09:02.254Z,4.70
2023-01-30T12:11:44.664Z,4.30
2023-01-30T12:14:33.388Z,4.05
2023-01-30T12:17:05.865Z,3.80
2023-01-30T12:19:40.784Z,4.35
2023-01-30T12:22:29.492Z,3.83
2023-01-30T12:24:59.301Z,2.92
2023-01-30T12:27:44.875Z,2.65
2023-01-30T12:30:31.498Z,2.80
2023-01-30T12:33:05.148Z,3.38
2023-01-30T12:35:53.187Z,3.25
2023-01-30T12:38:28.723Z,3.83
2023-01-30T12:41:03.021Z,3.78
2023-01-30T12:43:36.745Z,3.03
2023-01-30T12:46:04.371Z,2.90
2023-01-30T12:48:44.228Z,2.63
2023-01-30T12:51:35.099Z,3.55
2023-01-30T12:54:05.927Z,3.30
2023-01-30T12:56:43.985Z,3.85
2023-01-30T12:59:11.756Z,3.30
2023-01-30T13:01:44.369Z,3.63
2023-01-30T13:04:28.563Z,3.50
2023-01-30T13:06:59.618Z,3.28
2023-01-30T13:10:06.429Z,3.72
2023-01-30T13:12:34.198Z,3.47
2023-01-30T13:15:08.501Z,3.72
2023-01-30T13:17:42.391Z,3.50
2023-01-30T13:20:13.088Z,3.60
2023-01-30T13:22:53.066Z,4.20
2023-01-30T13:25:20.828Z,4.00
2023-01-30T13:27:54.032Z,3.72
2023-01-30T13:30:25.305Z,4.15
2023-01-30T13:32:56.055Z,3.95
2023-01-30T13:35:35.265Z,3.45
2023-01-30T13:38:04.068Z,3.40
2023-01-30T13:40:38.434Z,3.50
2023-01-30T13:43:36.726Z,4.53
2023-01-30T13:46:07.887Z,4.18
2023-01-30T13:48:54.299Z,4.85
2023-01-30T13:51:34.429Z,4.07
2023-01-30T13:54:17.571Z,4.25
2023-01-30T13:56:51.309Z,3.88
2023-01-30T13:59:44.169Z,3.35
2023-01-30T14:02:17.982Z,4.43
2023-01-30T14:04:47.414Z,4.05
2023-01-30T14:07:38.652Z,4.57
2023-01-30T14:10:09.546Z,4.20
2023-01-30T14:12:39.593Z,4.10
2023-01-30T14:15:13.503Z,5.35
2023-01-30T14:18:02.711Z,3.85
2023-01-30T14:20:32.380Z,5.88
2023-01-30T14:23:01.783Z,7.38
2023-01-30T14:25:29.407Z,7.78
2023-01-30T14:28:00.099Z,9.15
2023-01-30T14:30:47.696Z,9.57
2023-01-30T14:33:21.631Z,8.82
2023-01-30T14:36:01.599Z,8.93
2023-01-30T14:38:36.231Z,8.70
2023-01-30T14:41:03.871Z,8.38
2023-01-30T14:43:43.518Z,9.43
2023-01-30T14:46:17.329Z,9.25
2023-01-30T14:48:57.223Z,7.32
2023-01-30T14:51:40.442Z,4.07
2023-01-30T14:54:11.149Z,3.83
2023-01-30T14:56:41.144Z,3.65
2023-01-30T14:59:19.892Z,3.40
2023-01-30T15:02:17.191Z,3.42
2023-01-30T15:05:03.997Z,3.83
2023-01-30T15:07:31.916Z,3.10
2023-01-30T15:10:02.341Z,4.05
2023-01-30T15:12:38.742Z,2.88
2023-01-30T15:15:06.405Z,4.05
2023-01-30T15:17:43.437Z,3.85
2023-01-30T15:20:13.188Z,3.42
2023-01-30T15:22:55.401Z,3.88
2023-01-30T15:25:23.245Z,3.40
2023-01-30T15:28:09.619Z,3.92
2023-01-30T15:30:43.589Z,3.95
2023-01-30T15:33:29.400Z,4.80
2023-01-30T15:36:19.504Z,4.13
2023-01-30T15:38:47.226Z,4.47
2023-01-30T15:41:14.924Z,4.22
2023-01-30T15:43:45.631Z,4.50
2023-01-30T15:46:33.144Z,4.70
2023-01-30T15:49:07.003Z,4.75
2023-01-30T15:51:40.803Z,4.85
2023-01-30T15:54:12.780Z,6.25
2023-01-30T15:56:41.035Z,6.63
2023-01-30T15:59:08.991Z,6.75
2023-01-30T16:01:36.690Z,5.97
2023-01-30T16:04:08.157Z,6.00
2023-01-30T16:06:37.252Z,7.15
2023-01-30T16:09:06.458Z,6.00
2023-01-30T16:11:39.549Z,5.65
2023-01-30T16:14:08.193Z,6.35
2023-01-30T16:16:36.510Z,6.25
2023-01-30T16:19:09.059Z,6.68
2023-01-30T16:21:39.958Z,6.50
2023-01-30T16:24:13.312Z,6.30
2023-01-30T16:26:43.037Z,6.00
2023-01-30T16:29:15.778Z,6.05
2023-01-30T16:31:47.507Z,6.80
2023-01-30T16:34:26.469Z,6.20
2023-01-30T16:36:54.912Z,6.07
2023-01-30T16:39:30.709Z,6.22
2023-01-30T16:41:59.739Z,6.22
2023-01-30T16:44:28.480Z,5.57
2023-01-30T16:47:22.389Z,6.30
2023-01-30T16:49:50.628Z,5.38
2023-01-30T16:52:41.366Z,6.18
2023-01-30T16:55:19.106Z,5.80
2023-01-30T16:58:07.393Z,5.40
2023-01-30T17:00:39.394Z,5.88
2023-01-30T17:03:09.106Z,5.85
2023-01-30T17:05:41.119Z,5.68
2023-01-30T17:08:31.539Z,4.95
2023-01-30T17:11:00.018Z,6.35
2023-01-30T17:13:30.789Z,6.03
2023-01-30T17:16:33.827Z,5.63
2023-01-30T17:19:01.990Z,6.35
2023-01-30T17:21:36.379Z,6.43
2023-01-30T17:24:05.565Z,8.43
2023-01-30T17:26:33.803Z,6.97
2023-01-30T17:29:01.440Z,7.20
2023-01-30T17:31:29.184Z,6.75
2023-01-30T17:33:57.047Z,6.63
2023-01-30T17:36:28.603Z,7.15
2023-01-30T17:38:59.427Z,7.47
2023-01-30T17:41:33.037Z,6.75
2023-01-30T17:44:00.696Z,7.13
2023-01-30T17:46:33.236Z,6.28
2023-01-30T17:49:01.032Z,6.72
2023-01-30T17:51:28.603Z,6.95
2023-01-30T17:53:56.403Z,7.45
2023-01-30T17:56:28.188Z,7.20
2023-01-30T17:58:55.878Z,7.07
2023-01-30T18:01:23.470Z,6.50
2023-01-30T18:03:51.074Z,6.82
2023-01-30T18:06:18.810Z,7.07
2023-01-30T18:08:46.974Z,6.95
2023-01-30T18:11:15.890Z,7.70
2023-01-30T18:13:43.575Z,7.57
2023-01-30T18:16:16.419Z,7.50
2023-01-30T18:18:44.082Z,7.80
2023-01-30T18:21:11.610Z,7.55
2023-01-30T18:23:39.161Z,7.10
2023-01-30T18:26:06.739Z,8.77
2023-01-30T18:28:34.363Z,7.75
2023-01-30T18:31:02.019Z,7.25
2023-01-30T18:33:29.660Z,7.43
2023-01-30T18:35:57.423Z,7.50
2023-01-30T18:38:25.069Z,7.70
2023-01-30T18:40:52.666Z,8.60
2023-01-30T18:43:21.917Z,8.02
2023-01-30T18:45:50.147Z,7.70
2023-01-30T18:48:17.700Z,8.07
2023-01-30T18:50:45.330Z,8.27
2023-01-30T18:53:12.945Z,8.35
2023-01-30T18:55:49.384Z,8.70
2023-01-30T18:58:17.315Z,8.65
2023-01-30T19:00:45.320Z,9.98
2023-01-30T19:03:13.089Z,8.57
2023-01-30T19:05:40.874Z,9.35
2023-01-30T19:08:08.599Z,10.45
2023-01-30T19:10:36.327Z,9.50
2023-01-30T19:13:22.789Z,9.43
2023-01-30T19:15:50.673Z,8.95
2023-01-30T19:18:18.411Z,9.77
2023-01-30T19:20:46.077Z,10.18
2023-01-30T19:23:13.740Z,10.48
2023-01-30T19:25:41.421Z,9.82
2023-01-30T19:28:09.739Z,9.43
2023-01-30T19:30:37.375Z,8.98
2023-01-30T19:33:05.057Z,9.77
2023-01-30T19:35:36.273Z,10.02
2023-01-30T19:40:32.571Z,10.68
2023-01-30T19:43:10.337Z,10.75
2023-01-30T19:45:43.024Z,9.25
2023-01-30T19:48:14.759Z,9.35
2023-01-30T19:50:42.833Z,8.48
2023-01-30T19:53:14.307Z,9.60
2023-01-30T19:55:44.417Z,9.18
2023-01-30T19:58:13.532Z,9.68
2023-01-30T20:00:41.553Z,9.82
2023-01-30T20:03:13.520Z,9.25
2023-01-30T20:05:44.160Z,9.55
2023-01-30T20:08:31.596Z,9.15
2023-01-30T20:11:07.472Z,9.93
2023-01-30T20:13:38.524Z,8.55
2023-01-30T20:16:15.936Z,8.23
2023-01-30T20:18:55.054Z,8.05
2023-01-30T20:21:25.901Z,8.75
2023-01-30T20:23:54.177Z,7.53
2023-01-30T20:26:29.648Z,7.30
2023-01-30T20:28:57.983Z,8.98
2023-01-30T20:31:38.723Z,7.07
2023-01-30T20:34:14.324Z,7.07
2023-01-30T20:36:46.450Z,8.07
2023-01-30T20:39:20.251Z,7.43
2023-01-30T20:41:48.897Z,8.10
2023-01-30T20:44:18.419Z,7.72
2023-01-30T20:46:48.785Z,7.20
2023-01-30T20:49:27.294Z,7.25
2023-01-30T20:52:10.419Z,7.00
2023-01-30T20:55:05.522Z,6.35
2023-01-30T20:57:35.121Z,7.18
2023-01-30T21:00:06.004Z,5.88
2023-01-30T21:02:42.096Z,5.45
2023-01-30T21:05:29.315Z,5.82
2023-01-30T21:07:57.382Z,6.43
2023-01-30T21:10:25.351Z,5.38
2023-01-30T21:12:55.305Z,4.88
2023-01-30T21:15:23.493Z,5.93
2023-01-30T21:17:51.739Z,5.43
2023-01-30T21:20:19.424Z,6.05
2023-01-30T21:22:49.283Z,5.45
2023-01-30T21:25:17.517Z,5.93
2023-01-30T21:27:45.489Z,5.40
2023-01-30T21:30:14.017Z,5.53
2023-01-30T21:32:41.789Z,5.28
2023-01-30T21:35:09.589Z,5.13
2023-01-30T21:37:56.029Z,5.43
2023-01-30T21:40:42.580Z,5.38
2023-01-30T21:43:16.365Z,5.53
2023-01-30T21:45:45.167Z,5.60
2023-01-30T21:48:13.196Z,5.45
2023-01-30T21:50:41.221Z,5.55
2023-01-30T21:53:09.032Z,6.25
2023-01-30T21:55:37.028Z,5.00
2023-01-30T21:58:04.784Z,4.40
2023-01-30T22:00:32.751Z,4.90
2023-01-30T22:03:00.410Z,4.55
2023-01-30T22:05:28.187Z,4.20
2023-01-30T22:07:56.100Z,4.97
2023-01-30T22:10:23.775Z,9.05
2023-01-30T22:12:51.369Z,9.63
2023-01-30T22:15:21.953Z,10.23
2023-01-30T22:17:50.361Z,6.57
2023-01-30T22:20:18.299Z,3.85
2023-01-30T22:22:47.251Z,4.85
2023-01-30T22:25:14.927Z,4.88
2023-01-30T22:27:42.671Z,5.05
2023-01-30T22:30:10.677Z,5.60
2023-01-30T22:32:38.446Z,5.28
2023-01-30T22:35:06.261Z,4.90
2023-01-30T22:37:34.287Z,4.88
2023-01-30T22:40:02.372Z,8.20
2023-01-30T22:42:29.962Z,5.88
2023-01-30T22:44:57.703Z,4.93
2023-01-30T22:47:25.924Z,4.80
2023-01-30T22:49:53.811Z,4.93
2023-01-30T22:52:21.454Z,6.00
2023-01-30T22:54:49.237Z,5.30
2023-01-30T22:57:17.414Z,5.95
2023-01-30T22:59:52.112Z,6.47
2023-01-30T23:02:20.021Z,6.03
2023-01-30T23:04:50.595Z,6.18
2023-01-30T23:07:19.664Z,5.47
2023-01-30T23:09:51.049Z,6.00
2023-01-30T23:12:40.650Z,6.78
2023-01-30T23:15:08.830Z,5.70
2023-01-30T23:17:54.964Z,5.80
2023-01-30T23:20:23.984Z,5.80
2023-01-30T23:22:51.979Z,5.93
2023-01-30T23:25:19.850Z,6.72
2023-01-30T23:27:47.836Z,6.30
2023-01-30T23:30:15.525Z,6.30
2023-01-30T23:32:44.080Z,7.15
2023-01-30T23:35:12.045Z,7.95
2023-01-30T23:37:58.754Z,7.47
2023-01-30T23:40:26.460Z,7.43
2023-01-30T23:42:54.460Z,7.97
2023-01-30T23:45:27.845Z,6.97
2023-01-30T23:47:55.874Z,7.85
2023-01-30T23:50:23.520Z,6.95
2023-01-30T23:52:51.221Z,7.20
2023-01-30T23:55:19.186Z,7.40
2023-01-30T23:57:47.192Z,7.20
